createdAt,value
2019-03-10T00:02:22.665Z,77499.55
2019-03-10T00:05:10.827Z,77501.57
2019-03-10T00:10:29.580Z,77491.45
2019-03-10T00:12:58.775Z,77491.45
2019-03-10T00:15:28.222Z,77488.41
2019-03-10T00:17:57.556Z,77486.38
2019-03-10T00:20:26.946Z,77482.34
2019-03-10T00:22:56.804Z,77477.27
2019-03-10T00:25:25.951Z,77477.27
2019-03-10T00:28:34.908Z,77473.22
2019-03-10T00:33:57.764Z,77481.33
2019-03-10T00:36:27.076Z,77479.30
2019-03-10T00:39:34.457Z,77477.27
2019-03-10T00:42:59.326Z,77479.30
2019-03-10T00:46:06.686Z,77470.19
2019-03-10T00:49:14.045Z,77472.21
2019-03-10T00:52:21.484Z,77464.11
2019-03-10T00:54:51.035Z,77465.13
2019-03-10T00:57:20.224Z,77465.13
2019-03-10T00:59:49.382Z,77466.14
2019-03-10T01:02:18.677Z,77471.20
2019-03-10T01:04:48.390Z,77465.13
2019-03-10T01:07:57.129Z,77467.15
2019-03-10T01:10:26.360Z,77459.05
2019-03-10T01:16:52.030Z,77465.13
2019-03-10T01:25:23.427Z,77439.81
2019-03-10T01:27:53.102Z,77430.70
2019-03-10T01:30:22.322Z,77427.67
2019-03-10T01:33:29.726Z,77416.53
2019-03-10T01:36:38.445Z,77397.30
2019-03-10T01:42:02.850Z,77401.34
2019-03-10T01:44:32.089Z,77397.30
2019-03-10T01:47:20.575Z,77391.22
2019-03-10T01:50:09.597Z,77388.19
2019-03-10T01:56:10.123Z,77384.14
2019-03-10T01:58:39.493Z,77379.08
2019-03-10T02:01:08.961Z,77376.04
2019-03-10T02:03:38.202Z,77361.87
2019-03-10T02:06:07.585Z,77355.79
2019-03-10T02:08:36.781Z,77348.70
2019-03-10T02:11:45.384Z,77340.61
2019-03-10T02:14:35.155Z,77328.46
2019-03-10T02:17:04.594Z,77319.34
2019-03-10T02:19:33.860Z,77305.17
2019-03-10T02:22:23.542Z,77305.17
2019-03-10T02:30:35.357Z,77280.88
2019-03-10T02:33:04.733Z,77289.99
2019-03-10T02:36:13.366Z,77286.95
2019-03-10T02:38:42.646Z,77285.94
2019-03-10T02:41:11.873Z,77278.86
2019-03-10T02:43:41.441Z,77278.86
2019-03-10T02:46:10.823Z,77277.84
2019-03-10T02:48:39.969Z,77275.81
2019-03-10T02:51:09.239Z,77272.78
2019-03-10T02:53:38.588Z,77276.83
2019-03-10T02:56:08.126Z,77269.75
2019-03-10T02:58:37.445Z,77271.77
2019-03-10T03:01:06.718Z,77254.56
2019-03-10T03:03:35.979Z,77248.48
2019-03-10T03:06:05.688Z,77247.47
2019-03-10T03:08:34.730Z,77246.46
2019-03-10T03:11:03.973Z,77244.44
2019-03-10T03:13:33.155Z,77238.37
2019-03-10T03:16:02.619Z,77235.33
2019-03-10T03:18:31.835Z,77226.22
2019-03-10T03:21:01.007Z,77229.25
2019-03-10T03:23:30.224Z,77230.27
2019-03-10T03:25:59.553Z,77222.17
2019-03-10T03:28:29.112Z,77223.18
2019-03-10T03:31:37.801Z,77221.16
2019-03-10T03:34:07.028Z,77221.16
2019-03-10T03:36:37.745Z,77222.17
2019-03-10T03:39:11.956Z,77227.23
2019-03-10T03:41:41.602Z,77230.27
2019-03-10T03:44:29.952Z,77240.39
2019-03-10T03:46:59.582Z,77245.45
2019-03-10T03:49:28.827Z,77250.52
2019-03-10T03:51:58.177Z,77249.50
2019-03-10T03:54:27.739Z,77249.50
2019-03-10T03:56:57.198Z,77243.42
2019-03-10T03:59:26.945Z,77240.39
2019-03-10T04:08:51.372Z,77230.27
2019-03-10T04:11:39.609Z,77229.25
2019-03-10T04:14:09.993Z,77240.39
2019-03-10T04:16:39.260Z,77242.41
2019-03-10T04:19:08.495Z,77241.41
2019-03-10T04:21:37.759Z,77236.34
2019-03-10T04:24:46.905Z,77236.34
2019-03-10T04:27:18.733Z,77235.33
2019-03-10T04:29:48.142Z,77244.44
2019-03-10T04:32:17.388Z,77242.41
2019-03-10T04:34:46.657Z,77244.44
2019-03-10T04:37:34.799Z,77244.44
2019-03-10T04:40:06.686Z,77243.42
2019-03-10T04:42:38.706Z,77238.37
2019-03-10T04:45:07.992Z,77224.19
2019-03-10T04:47:37.582Z,77220.14
2019-03-10T04:50:06.893Z,77208.00
2019-03-10T04:52:36.988Z,77203.95
2019-03-10T04:55:25.288Z,77193.83
2019-03-10T05:01:10.766Z,77176.61
2019-03-10T05:03:40.113Z,77169.53
2019-03-10T05:06:09.365Z,77164.47
2019-03-10T05:08:38.830Z,77163.45
2019-03-10T05:13:56.618Z,77163.45
2019-03-10T05:16:25.843Z,77157.38
2019-03-10T05:18:55.085Z,77150.30
2019-03-10T05:22:03.809Z,77145.23
2019-03-10T05:24:55.683Z,77141.19
2019-03-10T05:27:24.895Z,77130.05
2019-03-10T05:29:54.137Z,77119.93
2019-03-10T05:32:23.343Z,77111.83
2019-03-10T05:34:52.632Z,77111.83
2019-03-10T05:37:42.668Z,77110.81
2019-03-10T05:40:32.787Z,77102.72
2019-03-10T05:43:01.972Z,77110.81
2019-03-10T05:45:51.757Z,77110.81
2019-03-10T05:48:42.225Z,77104.74
2019-03-10T05:51:30.738Z,77098.67
2019-03-10T05:56:54.739Z,77071.34
2019-03-10T05:59:43.030Z,77067.29
2019-03-10T06:02:32.772Z,77069.31
2019-03-10T06:07:55.626Z,77075.39
2019-03-10T06:10:25.002Z,77078.42
2019-03-10T06:12:56.299Z,77068.30
2019-03-10T06:15:46.131Z,77063.24
2019-03-10T06:18:55.459Z,77056.16
2019-03-10T06:21:24.736Z,77054.13
2019-03-10T06:24:14.464Z,77051.09
2019-03-10T06:26:43.791Z,77049.07
2019-03-10T06:29:13.109Z,77043.00
2019-03-10T06:31:42.810Z,77031.86
2019-03-10T06:34:13.023Z,77041.98
2019-03-10T06:37:01.125Z,77049.07
2019-03-10T06:42:13.402Z,77036.92
2019-03-10T06:45:03.205Z,77019.72
2019-03-10T06:47:32.439Z,77012.63
2019-03-10T06:50:01.762Z,77009.59
2019-03-10T06:55:56.480Z,76974.16
2019-03-10T07:01:41.107Z,76975.17
2019-03-10T07:07:38.476Z,76989.35
2019-03-10T07:10:09.758Z,77001.50
2019-03-10T07:12:58.155Z,76991.38
2019-03-10T07:15:27.467Z,76958.98
2019-03-10T07:18:18.896Z,76963.03
2019-03-10T07:20:48.636Z,76960.00
2019-03-10T07:26:27.166Z,76946.84
2019-03-10T07:29:15.295Z,76944.81
2019-03-10T07:31:49.389Z,76942.79
2019-03-10T07:34:37.590Z,76936.72
2019-03-10T07:37:26.540Z,76925.58
2019-03-10T07:40:33.725Z,76916.47
2019-03-10T07:43:22.170Z,76909.39
2019-03-10T07:46:10.399Z,76889.14
2019-03-10T07:48:58.619Z,76887.12
2019-03-10T07:52:07.262Z,76887.12
2019-03-10T07:54:55.822Z,76880.03
2019-03-10T07:58:04.630Z,76869.91
2019-03-10T08:00:52.744Z,76873.95
2019-03-10T08:04:01.398Z,76865.86
2019-03-10T08:06:49.631Z,76857.77
2019-03-10T08:09:37.870Z,76856.75
2019-03-10T08:12:26.015Z,76835.50
2019-03-10T08:15:34.678Z,76823.34
2019-03-10T08:18:22.871Z,76839.55
2019-03-10T08:21:11.575Z,76830.44
2019-03-10T08:23:59.865Z,76786.91
2019-03-10T08:27:11.698Z,76796.02
2019-03-10T08:30:02.417Z,76759.59
2019-03-10T08:32:50.671Z,76743.39
2019-03-10T08:41:35.444Z,76735.30
2019-03-10T08:44:25.438Z,76704.92
2019-03-10T08:50:15.160Z,76634.08
2019-03-10T08:53:03.487Z,76631.05
2019-03-10T08:55:53.857Z,76631.05
2019-03-10T09:01:47.500Z,76593.59
2019-03-10T09:04:47.077Z,76570.31
2019-03-10T09:07:35.488Z,76549.06
2019-03-10T09:13:30.858Z,76497.45
2019-03-10T09:16:19.375Z,76467.08
2019-03-10T09:22:39.382Z,76426.60
2019-03-10T09:25:27.706Z,76408.38
2019-03-10T09:28:25.086Z,76378.02
2019-03-10T09:31:13.473Z,76360.82
2019-03-10T09:33:48.325Z,76341.59
2019-03-10T09:36:37.079Z,76314.27
2019-03-10T09:39:46.804Z,76306.17
2019-03-10T09:42:34.974Z,76287.95
2019-03-10T09:45:26.760Z,76278.84
2019-03-10T09:48:17.298Z,76256.58
2019-03-10T09:50:56.777Z,76234.31
2019-03-10T09:53:45.268Z,76228.25
2019-03-10T09:56:33.698Z,76203.95
2019-03-10T10:08:46.304Z,76197.88
2019-03-10T10:11:53.886Z,76192.83
2019-03-10T10:14:41.641Z,76183.72
2019-03-10T10:20:27.773Z,76140.20
2019-03-10T10:23:18.007Z,76133.13
2019-03-10T10:26:19.074Z,76109.84
2019-03-10T10:32:32.253Z,76069.37
2019-03-10T10:35:20.747Z,76056.21
2019-03-10T10:38:28.255Z,76045.08
2019-03-10T10:41:24.764Z,76027.88
2019-03-10T10:44:33.146Z,76014.72
2019-03-10T10:47:40.741Z,75981.33
2019-03-10T10:50:52.853Z,75968.17
2019-03-10T10:54:02.030Z,75946.92
2019-03-10T11:03:19.069Z,75908.47
2019-03-10T11:05:56.636Z,75900.38
2019-03-10T11:08:45.024Z,75896.33
2019-03-10T11:11:33.381Z,75914.55
2019-03-10T11:14:21.542Z,75944.90
2019-03-10T11:17:09.749Z,75968.17
2019-03-10T11:22:53.282Z,76040.02
2019-03-10T11:26:02.029Z,76050.14
2019-03-10T11:28:50.142Z,76044.06
2019-03-10T11:31:38.240Z,76043.05
2019-03-10T11:34:26.384Z,76016.75
2019-03-10T11:43:10.973Z,75933.77
2019-03-10T11:48:42.252Z,75921.63
2019-03-10T11:51:49.411Z,75911.51
2019-03-10T11:54:37.650Z,75893.30
2019-03-10T11:57:25.864Z,75873.05
2019-03-10T12:00:14.069Z,75911.51
2019-03-10T12:03:03.770Z,75942.88
2019-03-10T12:05:51.930Z,75969.19
2019-03-10T12:08:40.468Z,75948.95
2019-03-10T12:11:15.650Z,75954.01
2019-03-10T12:13:50.482Z,75996.51
2019-03-10T12:16:19.709Z,76003.59
2019-03-10T12:18:48.912Z,76029.91
2019-03-10T12:27:20.984Z,76068.35
2019-03-10T12:30:23.067Z,75978.29
2019-03-10T12:32:52.251Z,75927.70
2019-03-10T12:35:22.308Z,76027.88
2019-03-10T12:37:51.605Z,76076.45
2019-03-10T12:40:40.217Z,76111.87
2019-03-10T12:43:10.031Z,76139.19
2019-03-10T12:48:34.839Z,76201.94
2019-03-10T12:51:06.232Z,76228.25
2019-03-10T12:53:36.051Z,76253.55
2019-03-10T12:56:07.742Z,76267.71
2019-03-10T12:58:38.935Z,76278.84
2019-03-10T13:01:08.246Z,76295.04
2019-03-10T13:03:37.720Z,76274.80
2019-03-10T13:06:37.931Z,76267.71
2019-03-10T13:09:48.139Z,76246.46
2019-03-10T13:12:43.002Z,76189.80
2019-03-10T13:15:13.783Z,76086.57
2019-03-10T13:20:39.331Z,76108.83
2019-03-10T13:23:09.193Z,76063.30
2019-03-10T13:25:42.234Z,76049.13
2019-03-10T13:28:17.489Z,76004.60
2019-03-10T13:31:08.648Z,75922.64
2019-03-10T13:33:57.165Z,75899.36
2019-03-10T13:36:28.380Z,75852.81
2019-03-10T13:39:02.213Z,75824.48
2019-03-10T13:44:20.424Z,75876.09
2019-03-10T13:47:08.814Z,75941.86
2019-03-10T13:49:59.367Z,75949.96
2019-03-10T13:52:28.859Z,75899.36
2019-03-10T13:54:58.087Z,75945.91
2019-03-10T13:57:27.398Z,76036.98
2019-03-10T14:02:51.996Z,76127.05
2019-03-10T14:05:40.243Z,76161.45
2019-03-10T14:08:11.689Z,76175.63
2019-03-10T14:14:10.895Z,76110.86
2019-03-10T14:17:00.844Z,76106.81
2019-03-10T14:22:18.424Z,76193.84
2019-03-10T14:25:27.310Z,76268.72
2019-03-10T14:31:14.210Z,76370.94
2019-03-10T14:33:49.213Z,76354.75
2019-03-10T14:36:18.750Z,76405.34
2019-03-10T14:38:48.767Z,76443.81
2019-03-10T14:41:38.443Z,76443.81
2019-03-10T14:47:21.005Z,76518.70
2019-03-10T14:49:50.522Z,76517.69
2019-03-10T14:53:00.052Z,76540.97
2019-03-10T14:55:29.419Z,76560.20
2019-03-10T14:57:58.630Z,76554.13
2019-03-10T15:06:44.466Z,76607.77
2019-03-10T15:09:54.283Z,76611.81
2019-03-10T15:12:23.882Z,76623.95
2019-03-10T15:14:53.494Z,76645.21
2019-03-10T15:17:46.161Z,76635.09
2019-03-10T15:20:15.819Z,76656.34
2019-03-10T15:28:28.480Z,76653.31
2019-03-10T15:31:19.507Z,76657.36
2019-03-10T15:33:58.633Z,76694.80
2019-03-10T15:45:59.189Z,76753.52
2019-03-10T15:48:51.323Z,76794.00
2019-03-10T15:51:44.503Z,76798.05
2019-03-10T15:54:13.783Z,76814.23
2019-03-10T15:59:21.149Z,76859.79
2019-03-10T16:01:54.544Z,76897.23
2019-03-10T16:08:02.575Z,76933.67
2019-03-10T16:17:03.292Z,77028.83
2019-03-10T16:19:32.568Z,77048.06
2019-03-10T16:22:01.730Z,77064.25
2019-03-10T16:24:50.435Z,77084.50
2019-03-10T16:27:20.005Z,77110.81
2019-03-10T16:33:19.347Z,77143.21
2019-03-10T16:35:49.535Z,77164.47
2019-03-10T16:38:39.319Z,77189.77
2019-03-10T16:41:10.681Z,77201.92
2019-03-10T16:44:19.370Z,77214.07
2019-03-10T16:46:48.640Z,77242.41
2019-03-10T16:52:49.536Z,77257.59
2019-03-10T16:55:18.806Z,77281.89
2019-03-10T16:58:19.764Z,77315.30
2019-03-10T17:03:55.064Z,77370.98
2019-03-10T17:06:24.341Z,77392.23
2019-03-10T17:09:33.121Z,77392.23
2019-03-10T17:12:02.720Z,77413.50
2019-03-10T17:20:59.063Z,77424.63
2019-03-10T17:24:09.189Z,77440.83
2019-03-10T17:30:19.919Z,77467.15
2019-03-10T17:33:09.831Z,77474.23
2019-03-10T17:35:59.466Z,77470.19
2019-03-10T17:38:40.129Z,77474.23
2019-03-10T17:41:31.622Z,77459.05
2019-03-10T17:48:06.815Z,77459.05
2019-03-10T17:50:41.546Z,77461.08
2019-03-10T17:56:48.782Z,77469.17
2019-03-10T17:59:29.682Z,77461.08
2019-03-10T18:05:00.589Z,77472.21
2019-03-10T18:07:29.764Z,77467.15
2019-03-10T18:10:19.649Z,77475.25
2019-03-10T18:12:49.339Z,77464.11
2019-03-10T18:18:15.304Z,77466.14
2019-03-10T18:21:05.164Z,77453.98
2019-03-10T18:23:34.404Z,77459.05
2019-03-10T18:26:03.745Z,77457.02
2019-03-10T18:36:34.064Z,77478.28
2019-03-10T18:39:03.395Z,77483.34
2019-03-10T18:41:32.548Z,77491.45
2019-03-10T18:47:39.548Z,77519.80
2019-03-10T18:50:16.886Z,77540.04
2019-03-10T18:59:08.759Z,77596.73
2019-03-10T19:01:38.556Z,77610.91
2019-03-10T19:04:31.791Z,77627.11
2019-03-10T19:07:01.143Z,77635.20
2019-03-10T19:10:09.907Z,77649.38
2019-03-10T19:12:40.027Z,77658.49
2019-03-10T19:15:30.916Z,77673.67
2019-03-10T19:18:02.852Z,77681.78
2019-03-10T19:20:32.039Z,77692.91
2019-03-10T19:23:20.461Z,77713.16
2019-03-10T19:25:49.667Z,77703.04
2019-03-10T19:28:19.011Z,77711.14
2019-03-10T19:30:48.324Z,77719.23
2019-03-10T19:33:17.513Z,77728.34
2019-03-10T19:36:11.428Z,77739.48
2019-03-10T19:41:56.548Z,77731.39
2019-03-10T19:44:25.964Z,77742.52
2019-03-10T19:53:05.082Z,77751.63
2019-03-10T19:55:34.649Z,77798.20
2019-03-10T19:58:03.900Z,77834.66
2019-03-10T20:00:33.466Z,77900.47
2019-03-10T20:03:21.883Z,77959.19
2019-03-10T20:14:28.090Z,78165.75
2019-03-10T20:16:57.426Z,78179.92
2019-03-10T20:19:45.812Z,78203.22
2019-03-10T20:31:13.429Z,78207.27
2019-03-10T20:33:44.038Z,78238.66
2019-03-10T20:39:01.739Z,78190.05
2019-03-10T20:41:31.062Z,78178.91
2019-03-10T20:44:39.714Z,78189.04
2019-03-10T20:47:09.051Z,78208.28
2019-03-10T20:49:57.895Z,78195.11
2019-03-10T20:52:27.290Z,78204.23
2019-03-10T20:54:56.640Z,78210.30
2019-03-10T20:57:25.941Z,78212.33
2019-03-10T21:02:31.170Z,78202.20
2019-03-10T21:05:20.908Z,78198.16
2019-03-10T21:07:51.617Z,78187.02
2019-03-10T21:10:39.777Z,78177.91
2019-03-10T21:13:08.981Z,78181.95
2019-03-10T21:15:38.259Z,78199.16
2019-03-10T21:18:07.535Z,78206.25
2019-03-10T21:20:36.696Z,78206.25
2019-03-10T21:23:05.995Z,78208.28
2019-03-10T21:26:14.739Z,78212.33
2019-03-10T21:31:37.373Z,78224.48
2019-03-10T21:34:06.932Z,78218.41
2019-03-10T21:36:56.913Z,78218.41
2019-03-10T21:42:29.996Z,78221.44
2019-03-10T21:45:00.765Z,78226.50
2019-03-10T21:50:25.738Z,78232.58
2019-03-10T21:55:50.787Z,78230.55
2019-03-10T21:58:20.040Z,78240.68
2019-03-10T22:00:49.369Z,78239.67
2019-03-10T22:06:14.347Z,78230.55
2019-03-10T22:08:43.585Z,78232.58
2019-03-10T22:11:31.792Z,78230.55
2019-03-10T22:14:41.105Z,78240.68
2019-03-10T22:17:10.274Z,78242.70
2019-03-10T22:19:39.885Z,78248.78
2019-03-10T22:22:09.120Z,78242.70
2019-03-10T22:24:38.288Z,78236.63
2019-03-10T22:27:07.607Z,78240.68
2019-03-10T22:29:37.192Z,78236.63
2019-03-10T22:32:06.470Z,78224.48
2019-03-10T22:35:15.159Z,78221.44
2019-03-10T22:38:04.859Z,78218.41
2019-03-10T22:40:34.162Z,78207.27
2019-03-10T22:43:03.440Z,78196.13
2019-03-10T22:45:51.685Z,78184.98
2019-03-10T22:48:21.025Z,78175.88
2019-03-10T22:51:29.760Z,78164.73
2019-03-10T22:54:18.416Z,78154.61
2019-03-10T22:56:47.697Z,78143.47
2019-03-10T22:59:17.100Z,78117.15
2019-03-10T23:01:46.342Z,78095.88
2019-03-10T23:04:15.817Z,78063.48
2019-03-10T23:06:44.993Z,78041.20
2019-03-10T23:09:34.811Z,78019.94
2019-03-10T23:12:04.184Z,78022.98
2019-03-10T23:14:33.454Z,77984.50
2019-03-10T23:17:02.970Z,77998.68
2019-03-10T23:19:32.154Z,77986.53
2019-03-10T23:22:01.376Z,77972.36
2019-03-10T23:24:30.582Z,77959.19
2019-03-10T23:26:59.787Z,77957.16
2019-03-10T23:29:29.079Z,77957.16
2019-03-10T23:32:17.138Z,77959.19
2019-03-10T23:35:05.347Z,77969.31
2019-03-10T23:37:34.580Z,77964.25
2019-03-10T23:40:24.464Z,77963.24
2019-03-10T23:42:54.036Z,77953.12
2019-03-10T23:45:23.066Z,77948.05
2019-03-10T23:47:52.529Z,77939.95
2019-03-10T23:50:21.778Z,77937.93
2019-03-10T23:52:51.066Z,77932.87
2019-03-10T23:55:20.261Z,77932.87
2019-03-10T23:57:49.735Z,77930.84
